Windsor, SC

4:55 PM EST on January 29, 2015 (GMT -0500)
Rural Aiken Montmorenci | Change Station
CLOSE
Current Station
Personal Weather Station
Location: Aiken, SC
Elevation: 410 ft
Nearby Weather Stations

Elev 410 ft 33.55 °N, 81.56 °W | Updated 5 minutes ago

Clear
Clear
55.2 °F
Feels Like 55.2 °F
N
2.0
Wind Variable Wind from South

Today
High -- | Low -- °F
--% Chance of Precip.
Yesterday
High -- | Low -- °F
Precip. -- in
7:24 AM 5:54 PM
Waxing Gibbous, 77% visible
Pressure 30.18 in
Visibility 10.0 miles
Clouds Scattered Clouds 10000 ft
Scattered Clouds 12000 ft
Dew Point 29 °F
Humidity 37%
Rainfall 0.00 in
Snow Depth Not available.
UV 0 out of 12
Pollen 1.50 out of 12
Air Quality Not available.
Flu Activity Not available.
METAR KAIK 292155Z AUTO 18008KT 10SM SCT100 SCT120 12/M03 A3018 RMK AO2 PNO

More Conditions Fewer Conditions

Pressure 30.18 in
Visibility 10.0 miles
Clouds Scattered Clouds 10000 ft
Scattered Clouds 12000 ft
Dew Point 29 °F
Humidity 37%
Rainfall 0.00 in
Snow Depth Not available.
UV 0 out of 12
Pollen 1.50 out of 12
Air Quality Not available.
Flu Activity Not available.
METAR KAIK 292155Z AUTO 18008KT 10SM SCT100 SCT120 12/M03 A3018 RMK AO2 PNO

More Conditions Fewer Conditions

10-Day Weather Forecast

Almanac

Astronomy

Jan. 29, 2015 Rise Set
Actual Time
Civil Twilight
Nautical Twilight
Astronomical Twilight
Moon
Length of Visible Light
Length of Day
Tomorrow will be .
, % of the Moon is Illuminated

Today's Extremes

State Highs State Lows

Community

WunderPhotos

Upload Photos

1,791,615 photos uploaded!

WunderBlogs® & News

Nearby

Air Quality

  Air Quality AQ Index Pollutant
Not available.

Snow Depth

Station Depth Elevation

Earthquake Activity

City Distance Mag. Time & Date
Minimum magnitude displayed is 2.5.

Coastal Water Temperatures

Place Temperature

Nearby Weather Stations